sensor_id;sensor_type;location;lat;lon;timestamp;P1;durP1;ratioP1;P2;durP2;ratioP2
74677;SDS011;67324;56.326;43.982;2023-04-29T00:00:21;4.40;;;3.50;;
74677;SDS011;67324;56.326;43.982;2023-04-29T00:02:47;3.67;;;3.30;;
74677;SDS011;67324;56.326;43.982;2023-04-29T00:05:13;4.55;;;3.30;;
74677;SDS011;67324;56.326;43.982;2023-04-29T00:07:39;3.80;;;3.40;;
74677;SDS011;67324;56.326;43.982;2023-04-29T00:10:05;4.10;;;3.20;;
74677;SDS011;67324;56.326;43.982;2023-04-29T00:12:31;3.60;;;3.05;;
74677;SDS011;67324;56.326;43.982;2023-04-29T00:14:58;3.80;;;3.33;;
74677;SDS011;67324;56.326;43.982;2023-04-29T00:17:25;4.38;;;3.53;;
74677;SDS011;67324;56.326;43.982;2023-04-29T00:19:51;4.25;;;3.38;;
74677;SDS011;67324;56.326;43.982;2023-04-29T00:22:16;4.38;;;3.10;;
74677;SDS011;67324;56.326;43.982;2023-04-29T00:24:42;3.55;;;3.00;;
74677;SDS011;67324;56.326;43.982;2023-04-29T00:27:08;4.15;;;3.50;;
74677;SDS011;67324;56.326;43.982;2023-04-29T00:29:36;4.63;;;3.45;;
74677;SDS011;67324;56.326;43.982;2023-04-29T00:32:02;4.63;;;3.40;;
74677;SDS011;67324;56.326;43.982;2023-04-29T00:34:28;4.55;;;3.47;;
74677;SDS011;67324;56.326;43.982;2023-04-29T00:36:54;3.83;;;3.30;;
74677;SDS011;67324;56.326;43.982;2023-04-29T00:39:20;3.40;;;3.10;;
74677;SDS011;67324;56.326;43.982;2023-04-29T00:41:46;4.57;;;3.67;;
74677;SDS011;67324;56.326;43.982;2023-04-29T00:44:12;4.18;;;3.13;;
74677;SDS011;67324;56.326;43.982;2023-04-29T00:46:38;3.42;;;3.03;;
74677;SDS011;67324;56.326;43.982;2023-04-29T00:49:04;5.70;;;3.33;;
74677;SDS011;67324;56.326;43.982;2023-04-29T00:51:30;3.88;;;2.70;;
74677;SDS011;67324;56.326;43.982;2023-04-29T00:53:57;4.40;;;3.40;;
74677;SDS011;67324;56.326;43.982;2023-04-29T00:56:23;3.65;;;3.00;;
74677;SDS011;67324;56.326;43.982;2023-04-29T00:58:49;4.32;;;3.30;;
74677;SDS011;67324;56.326;43.982;2023-04-29T01:01:17;3.63;;;3.30;;
74677;SDS011;67324;56.326;43.982;2023-04-29T01:03:44;3.72;;;3.28;;
74677;SDS011;67324;56.326;43.982;2023-04-29T01:06:25;4.03;;;3.38;;
74677;SDS011;67324;56.326;43.982;2023-04-29T01:12:02;4.65;;;3.05;;
74677;SDS011;67324;56.326;43.982;2023-04-29T01:14:36;4.05;;;3.13;;
74677;SDS011;67324;56.326;43.982;2023-04-29T01:17:05;3.85;;;3.20;;
74677;SDS011;67324;56.326;43.982;2023-04-29T01:19:38;4.72;;;3.47;;
74677;SDS011;67324;56.326;43.982;2023-04-29T01:22:10;4.18;;;3.10;;
74677;SDS011;67324;56.326;43.982;2023-04-29T01:24:39;3.78;;;3.38;;
74677;SDS011;67324;56.326;43.982;2023-04-29T01:30:07;3.53;;;3.22;;
74677;SDS011;67324;56.326;43.982;2023-04-29T01:35:39;3.60;;;2.92;;
74677;SDS011;67324;56.326;43.982;2023-04-29T01:38:16;5.13;;;3.47;;
74677;SDS011;67324;56.326;43.982;2023-04-29T01:44:12;3.90;;;3.10;;
74677;SDS011;67324;56.326;43.982;2023-04-29T01:47:01;3.45;;;3.13;;
74677;SDS011;67324;56.326;43.982;2023-04-29T01:49:39;3.38;;;2.70;;
74677;SDS011;67324;56.326;43.982;2023-04-29T01:52:05;3.63;;;3.20;;
74677;SDS011;67324;56.326;43.982;2023-04-29T01:54:31;3.92;;;3.33;;
74677;SDS011;67324;56.326;43.982;2023-04-29T01:57:01;3.80;;;3.00;;
74677;SDS011;67324;56.326;43.982;2023-04-29T01:59:56;3.80;;;3.28;;
74677;SDS011;67324;56.326;43.982;2023-04-29T02:02:45;4.03;;;3.00;;
74677;SDS011;67324;56.326;43.982;2023-04-29T02:05:23;4.20;;;3.30;;
74677;SDS011;67324;56.326;43.982;2023-04-29T02:08:08;4.22;;;3.20;;
74677;SDS011;67324;56.326;43.982;2023-04-29T02:10:39;3.28;;;2.97;;
74677;SDS011;67324;56.326;43.982;2023-04-29T02:13:20;4.30;;;3.03;;
74677;SDS011;67324;56.326;43.982;2023-04-29T02:15:46;4.53;;;3.40;;
74677;SDS011;67324;56.326;43.982;2023-04-29T02:18:12;3.72;;;3.33;;
74677;SDS011;67324;56.326;43.982;2023-04-29T02:20:39;3.95;;;3.00;;
74677;SDS011;67324;56.326;43.982;2023-04-29T02:23:05;4.82;;;3.20;;
74677;SDS011;67324;56.326;43.982;2023-04-29T02:25:31;3.85;;;3.33;;
74677;SDS011;67324;56.326;43.982;2023-04-29T02:28:15;3.05;;;2.75;;
74677;SDS011;67324;56.326;43.982;2023-04-29T02:30:42;3.22;;;2.90;;
74677;SDS011;67324;56.326;43.982;2023-04-29T02:33:26;4.50;;;3.20;;
74677;SDS011;67324;56.326;43.982;2023-04-29T02:35:52;3.58;;;3.20;;
74677;SDS011;67324;56.326;43.982;2023-04-29T02:38:18;3.25;;;2.80;;
74677;SDS011;67324;56.326;43.982;2023-04-29T02:40:44;3.78;;;3.10;;
74677;SDS011;67324;56.326;43.982;2023-04-29T02:43:10;3.63;;;3.10;;
74677;SDS011;67324;56.326;43.982;2023-04-29T02:45:37;3.33;;;3.00;;
74677;SDS011;67324;56.326;43.982;2023-04-29T02:48:06;3.33;;;3.03;;
74677;SDS011;67324;56.326;43.982;2023-04-29T02:50:32;3.97;;;3.28;;
74677;SDS011;67324;56.326;43.982;2023-04-29T02:52:59;4.63;;;3.00;;
74677;SDS011;67324;56.326;43.982;2023-04-29T02:55:25;3.70;;;2.90;;
74677;SDS011;67324;56.326;43.982;2023-04-29T02:57:53;3.80;;;3.13;;
74677;SDS011;67324;56.326;43.982;2023-04-29T03:00:19;4.03;;;3.13;;
74677;SDS011;67324;56.326;43.982;2023-04-29T03:02:45;3.72;;;3.08;;
74677;SDS011;67324;56.326;43.982;2023-04-29T03:05:11;3.08;;;2.78;;
74677;SDS011;67324;56.326;43.982;2023-04-29T03:07:37;3.60;;;3.13;;
74677;SDS011;67324;56.326;43.982;2023-04-29T03:10:04;3.47;;;3.17;;
74677;SDS011;67324;56.326;43.982;2023-04-29T03:12:31;3.60;;;3.13;;
74677;SDS011;67324;56.326;43.982;2023-04-29T03:14:57;3.50;;;3.13;;
74677;SDS011;67324;56.326;43.982;2023-04-29T03:17:22;3.67;;;3.03;;
74677;SDS011;67324;56.326;43.982;2023-04-29T03:19:48;3.70;;;2.90;;
74677;SDS011;67324;56.326;43.982;2023-04-29T03:22:15;4.07;;;2.97;;
74677;SDS011;67324;56.326;43.982;2023-04-29T03:24:41;3.60;;;3.22;;
74677;SDS011;67324;56.326;43.982;2023-04-29T03:27:07;3.35;;;3.00;;
74677;SDS011;67324;56.326;43.982;2023-04-29T03:29:33;3.20;;;2.90;;
74677;SDS011;67324;56.326;43.982;2023-04-29T03:31:59;3.47;;;2.92;;
74677;SDS011;67324;56.326;43.982;2023-04-29T03:34:27;3.22;;;2.78;;
74677;SDS011;67324;56.326;43.982;2023-04-29T03:37:19;3.10;;;2.80;;
74677;SDS011;67324;56.326;43.982;2023-04-29T03:39:50;3.42;;;3.13;;
74677;SDS011;67324;56.326;43.982;2023-04-29T03:42:16;3.67;;;3.00;;
74677;SDS011;67324;56.326;43.982;2023-04-29T03:44:43;3.65;;;3.10;;
74677;SDS011;67324;56.326;43.982;2023-04-29T03:47:09;3.85;;;3.13;;
74677;SDS011;67324;56.326;43.982;2023-04-29T03:49:35;3.22;;;2.90;;
74677;SDS011;67324;56.326;43.982;2023-04-29T03:52:01;3.65;;;2.80;;
74677;SDS011;67324;56.326;43.982;2023-04-29T03:54:27;4.85;;;3.47;;
74677;SDS011;67324;56.326;43.982;2023-04-29T03:56:53;3.20;;;2.72;;
74677;SDS011;67324;56.326;43.982;2023-04-29T03:59:19;3.28;;;2.97;;
74677;SDS011;67324;56.326;43.982;2023-04-29T04:01:47;3.75;;;3.00;;
74677;SDS011;67324;56.326;43.982;2023-04-29T04:04:12;3.25;;;2.90;;
74677;SDS011;67324;56.326;43.982;2023-04-29T04:06:43;3.75;;;3.22;;
74677;SDS011;67324;56.326;43.982;2023-04-29T04:09:18;3.63;;;3.15;;
74677;SDS011;67324;56.326;43.982;2023-04-29T04:11:45;3.92;;;2.95;;
74677;SDS011;67324;56.326;43.982;2023-04-29T04:14:11;3.13;;;2.80;;
74677;SDS011;67324;56.326;43.982;2023-04-29T04:16:37;3.55;;;3.05;;
74677;SDS011;67324;56.326;43.982;2023-04-29T04:19:03;3.33;;;2.63;;
74677;SDS011;67324;56.326;43.982;2023-04-29T04:21:32;3.08;;;2.78;;
74677;SDS011;67324;56.326;43.982;2023-04-29T04:24:04;3.90;;;3.10;;
74677;SDS011;67324;56.326;43.982;2023-04-29T04:26:31;3.30;;;2.80;;
74677;SDS011;67324;56.326;43.982;2023-04-29T04:29:29;3.35;;;2.83;;
74677;SDS011;67324;56.326;43.982;2023-04-29T04:32:03;3.25;;;2.85;;
74677;SDS011;67324;56.326;43.982;2023-04-29T04:34:48;3.65;;;3.15;;
74677;SDS011;67324;56.326;43.982;2023-04-29T04:37:15;3.40;;;3.05;;
74677;SDS011;67324;56.326;43.982;2023-04-29T04:39:47;4.03;;;3.25;;
74677;SDS011;67324;56.326;43.982;2023-04-29T04:42:14;3.75;;;2.83;;
74677;SDS011;67324;56.326;43.982;2023-04-29T04:44:40;3.38;;;3.00;;
74677;SDS011;67324;56.326;43.982;2023-04-29T04:47:10;3.35;;;3.00;;
74677;SDS011;67324;56.326;43.982;2023-04-29T04:50:08;3.20;;;2.90;;
74677;SDS011;67324;56.326;43.982;2023-04-29T04:52:35;3.35;;;3.05;;
74677;SDS011;67324;56.326;43.982;2023-04-29T04:55:13;3.10;;;2.80;;
74677;SDS011;67324;56.326;43.982;2023-04-29T04:57:42;4.28;;;3.20;;
74677;SDS011;67324;56.326;43.982;2023-04-29T05:00:08;3.97;;;2.90;;
74677;SDS011;67324;56.326;43.982;2023-04-29T05:02:35;4.10;;;3.05;;
74677;SDS011;67324;56.326;43.982;2023-04-29T05:05:01;3.30;;;2.78;;
74677;SDS011;67324;56.326;43.982;2023-04-29T05:07:29;2.97;;;2.67;;
74677;SDS011;67324;56.326;43.982;2023-04-29T05:10:02;3.58;;;2.90;;
74677;SDS011;67324;56.326;43.982;2023-04-29T05:12:31;3.20;;;2.90;;
74677;SDS011;67324;56.326;43.982;2023-04-29T05:14:58;3.25;;;2.95;;
74677;SDS011;67324;56.326;43.982;2023-04-29T05:17:25;3.40;;;3.10;;
74677;SDS011;67324;56.326;43.982;2023-04-29T05:19:51;3.13;;;2.78;;
74677;SDS011;67324;56.326;43.982;2023-04-29T05:22:17;2.95;;;2.60;;
74677;SDS011;67324;56.326;43.982;2023-04-29T05:24:43;3.50;;;2.90;;
74677;SDS011;67324;56.326;43.982;2023-04-29T05:27:09;3.05;;;2.75;;
74677;SDS011;67324;56.326;43.982;2023-04-29T05:29:35;3.08;;;2.78;;
74677;SDS011;67324;56.326;43.982;2023-04-29T05:32:01;3.05;;;2.65;;
74677;SDS011;67324;56.326;43.982;2023-04-29T05:34:28;4.03;;;3.17;;
74677;SDS011;67324;56.326;43.982;2023-04-29T05:36:54;3.00;;;2.70;;
74677;SDS011;67324;56.326;43.982;2023-04-29T05:39:21;3.35;;;2.95;;
74677;SDS011;67324;56.326;43.982;2023-04-29T05:41:56;3.45;;;2.97;;
74677;SDS011;67324;56.326;43.982;2023-04-29T05:44:41;3.88;;;3.33;;
74677;SDS011;67324;56.326;43.982;2023-04-29T05:47:07;3.42;;;2.80;;
74677;SDS011;67324;56.326;43.982;2023-04-29T05:49:33;3.15;;;2.85;;
74677;SDS011;67324;56.326;43.982;2023-04-29T05:51:59;3.05;;;2.70;;
74677;SDS011;67324;56.326;43.982;2023-04-29T05:54:29;4.28;;;2.95;;
74677;SDS011;67324;56.326;43.982;2023-04-29T05:56:55;3.25;;;2.85;;
74677;SDS011;67324;56.326;43.982;2023-04-29T05:59:20;3.58;;;3.00;;
74677;SDS011;67324;56.326;43.982;2023-04-29T06:01:51;3.38;;;2.97;;
74677;SDS011;67324;56.326;43.982;2023-04-29T06:04:16;3.38;;;2.95;;
74677;SDS011;67324;56.326;43.982;2023-04-29T06:07:01;3.28;;;2.90;;
74677;SDS011;67324;56.326;43.982;2023-04-29T06:09:45;3.40;;;2.85;;
74677;SDS011;67324;56.326;43.982;2023-04-29T06:12:11;3.25;;;2.95;;
74677;SDS011;67324;56.326;43.982;2023-04-29T06:14:40;3.55;;;3.10;;
74677;SDS011;67324;56.326;43.982;2023-04-29T06:17:06;3.47;;;3.17;;
74677;SDS011;67324;56.326;43.982;2023-04-29T06:22:17;3.88;;;2.83;;
74677;SDS011;67324;56.326;43.982;2023-04-29T06:24:47;3.25;;;2.95;;
74677;SDS011;67324;56.326;43.982;2023-04-29T06:27:20;2.97;;;2.67;;
74677;SDS011;67324;56.326;43.982;2023-04-29T06:29:46;3.50;;;3.10;;
74677;SDS011;67324;56.326;43.982;2023-04-29T06:32:12;3.33;;;3.03;;
74677;SDS011;67324;56.326;43.982;2023-04-29T06:34:39;3.10;;;2.70;;
74677;SDS011;67324;56.326;43.982;2023-04-29T06:37:21;3.20;;;2.90;;
74677;SDS011;67324;56.326;43.982;2023-04-29T06:39:59;4.28;;;2.75;;
74677;SDS011;67324;56.326;43.982;2023-04-29T06:42:40;3.90;;;2.80;;
74677;SDS011;67324;56.326;43.982;2023-04-29T06:48:10;2.92;;;2.60;;
74677;SDS011;67324;56.326;43.982;2023-04-29T06:50:49;3.47;;;2.80;;
74677;SDS011;67324;56.326;43.982;2023-04-29T06:53:17;3.58;;;3.10;;
74677;SDS011;67324;56.326;43.982;2023-04-29T06:55:43;3.33;;;2.80;;
74677;SDS011;67324;56.326;43.982;2023-04-29T06:58:14;3.55;;;2.83;;
74677;SDS011;67324;56.326;43.982;2023-04-29T07:00:44;2.95;;;2.58;;
74677;SDS011;67324;56.326;43.982;2023-04-29T07:03:11;3.10;;;2.67;;
74677;SDS011;67324;56.326;43.982;2023-04-29T07:05:37;3.80;;;2.65;;
74677;SDS011;67324;56.326;43.982;2023-04-29T07:08:07;3.58;;;3.00;;
74677;SDS011;67324;56.326;43.982;2023-04-29T07:10:34;3.40;;;2.75;;
74677;SDS011;67324;56.326;43.982;2023-04-29T07:13:00;3.38;;;2.95;;
74677;SDS011;67324;56.326;43.982;2023-04-29T07:15:26;3.10;;;2.80;;
74677;SDS011;67324;56.326;43.982;2023-04-29T07:17:53;3.72;;;2.83;;
74677;SDS011;67324;56.326;43.982;2023-04-29T07:20:19;3.47;;;3.17;;
74677;SDS011;67324;56.326;43.982;2023-04-29T07:22:45;3.10;;;2.80;;
74677;SDS011;67324;56.326;43.982;2023-04-29T07:25:11;3.78;;;2.97;;
74677;SDS011;67324;56.326;43.982;2023-04-29T07:27:38;3.25;;;2.80;;
74677;SDS011;67324;56.326;43.982;2023-04-29T07:30:04;3.28;;;2.70;;
74677;SDS011;67324;56.326;43.982;2023-04-29T07:32:30;3.45;;;2.95;;
74677;SDS011;67324;56.326;43.982;2023-04-29T07:35:01;4.85;;;3.05;;
74677;SDS011;67324;56.326;43.982;2023-04-29T07:37:28;3.33;;;3.03;;
74677;SDS011;67324;56.326;43.982;2023-04-29T07:39:54;3.20;;;2.85;;
74677;SDS011;67324;56.326;43.982;2023-04-29T07:42:21;3.08;;;2.78;;
74677;SDS011;67324;56.326;43.982;2023-04-29T07:44:47;2.90;;;2.60;;
74677;SDS011;67324;56.326;43.982;2023-04-29T07:47:13;3.22;;;2.88;;
74677;SDS011;67324;56.326;43.982;2023-04-29T07:49:39;3.28;;;2.97;;
74677;SDS011;67324;56.326;43.982;2023-04-29T07:52:06;3.78;;;2.65;;
74677;SDS011;67324;56.326;43.982;2023-04-29T07:54:34;2.72;;;2.53;;
74677;SDS011;67324;56.326;43.982;2023-04-29T07:57:01;4.13;;;2.70;;
74677;SDS011;67324;56.326;43.982;2023-04-29T07:59:30;3.50;;;2.90;;
74677;SDS011;67324;56.326;43.982;2023-04-29T08:01:57;3.78;;;2.92;;
74677;SDS011;67324;56.326;43.982;2023-04-29T08:04:23;3.20;;;2.80;;
74677;SDS011;67324;56.326;43.982;2023-04-29T08:07:09;3.35;;;2.58;;
74677;SDS011;67324;56.326;43.982;2023-04-29T08:09:53;3.28;;;2.83;;
74677;SDS011;67324;56.326;43.982;2023-04-29T08:12:19;3.05;;;2.60;;
74677;SDS011;67324;56.326;43.982;2023-04-29T08:14:45;3.42;;;2.80;;
74677;SDS011;67324;56.326;43.982;2023-04-29T08:17:11;3.65;;;2.90;;
74677;SDS011;67324;56.326;43.982;2023-04-29T08:19:36;3.50;;;2.65;;
74677;SDS011;67324;56.326;43.982;2023-04-29T08:22:02;3.00;;;2.45;;
74677;SDS011;67324;56.326;43.982;2023-04-29T08:24:28;2.80;;;2.47;;
74677;SDS011;67324;56.326;43.982;2023-04-29T08:26:55;3.17;;;2.78;;
74677;SDS011;67324;56.326;43.982;2023-04-29T08:29:21;3.05;;;2.70;;
74677;SDS011;67324;56.326;43.982;2023-04-29T08:31:46;3.38;;;2.80;;
74677;SDS011;67324;56.326;43.982;2023-04-29T08:34:12;2.80;;;2.55;;
74677;SDS011;67324;56.326;43.982;2023-04-29T08:36:38;3.10;;;2.80;;
74677;SDS011;67324;56.326;43.982;2023-04-29T08:39:04;3.03;;;2.70;;
74677;SDS011;67324;56.326;43.982;2023-04-29T08:41:31;3.05;;;2.63;;
74677;SDS011;67324;56.326;43.982;2023-04-29T08:44:00;2.90;;;2.60;;
74677;SDS011;67324;56.326;43.982;2023-04-29T08:46:26;3.08;;;2.78;;
74677;SDS011;67324;56.326;43.982;2023-04-29T08:48:53;3.13;;;2.83;;
74677;SDS011;67324;56.326;43.982;2023-04-29T08:51:22;3.22;;;2.63;;
74677;SDS011;67324;56.326;43.982;2023-04-29T08:54:06;2.58;;;2.38;;
74677;SDS011;67324;56.326;43.982;2023-04-29T08:56:32;2.90;;;2.60;;
74677;SDS011;67324;56.326;43.982;2023-04-29T08:58:58;3.70;;;2.85;;
74677;SDS011;67324;56.326;43.982;2023-04-29T09:01:27;3.42;;;2.67;;
74677;SDS011;67324;56.326;43.982;2023-04-29T09:06:48;2.95;;;2.72;;
74677;SDS011;67324;56.326;43.982;2023-04-29T09:09:14;3.20;;;2.90;;
74677;SDS011;67324;56.326;43.982;2023-04-29T09:11:40;3.47;;;2.70;;
74677;SDS011;67324;56.326;43.982;2023-04-29T09:14:06;2.92;;;2.63;;
74677;SDS011;67324;56.326;43.982;2023-04-29T09:16:33;3.17;;;2.78;;
74677;SDS011;67324;56.326;43.982;2023-04-29T09:19:30;2.72;;;2.47;;
74677;SDS011;67324;56.326;43.982;2023-04-29T09:21:57;2.58;;;2.38;;
74677;SDS011;67324;56.326;43.982;2023-04-29T09:24:27;3.13;;;2.80;;
74677;SDS011;67324;56.326;43.982;2023-04-29T09:26:53;3.47;;;2.60;;
74677;SDS011;67324;56.326;43.982;2023-04-29T09:29:20;2.63;;;2.40;;
74677;SDS011;67324;56.326;43.982;2023-04-29T09:31:46;2.88;;;2.60;;
74677;SDS011;67324;56.326;43.982;2023-04-29T09:34:13;3.30;;;2.80;;
74677;SDS011;67324;56.326;43.982;2023-04-29T09:36:41;3.53;;;2.70;;
74677;SDS011;67324;56.326;43.982;2023-04-29T09:39:10;3.13;;;2.83;;
74677;SDS011;67324;56.326;43.982;2023-04-29T09:41:39;2.95;;;2.70;;
74677;SDS011;67324;56.326;43.982;2023-04-29T09:44:06;3.03;;;2.72;;
74677;SDS011;67324;56.326;43.982;2023-04-29T09:46:33;3.20;;;2.55;;
74677;SDS011;67324;56.326;43.982;2023-04-29T09:49:03;2.75;;;2.55;;
74677;SDS011;67324;56.326;43.982;2023-04-29T09:51:51;2.70;;;2.50;;
74677;SDS011;67324;56.326;43.982;2023-04-29T09:54:21;3.65;;;2.80;;
74677;SDS011;67324;56.326;43.982;2023-04-29T09:56:49;2.92;;;2.58;;
74677;SDS011;67324;56.326;43.982;2023-04-29T09:59:17;2.85;;;2.60;;
74677;SDS011;67324;56.326;43.982;2023-04-29T10:01:45;3.03;;;2.72;;
74677;SDS011;67324;56.326;43.982;2023-04-29T10:04:14;3.30;;;2.70;;
74677;SDS011;67324;56.326;43.982;2023-04-29T10:07:00;3.08;;;2.65;;
74677;SDS011;67324;56.326;43.982;2023-04-29T10:09:27;2.80;;;2.40;;
74677;SDS011;67324;56.326;43.982;2023-04-29T10:11:53;3.33;;;2.50;;
74677;SDS011;67324;56.326;43.982;2023-04-29T10:14:23;3.35;;;2.55;;
74677;SDS011;67324;56.326;43.982;2023-04-29T10:16:58;3.00;;;2.63;;
74677;SDS011;67324;56.326;43.982;2023-04-29T10:19:38;3.45;;;2.55;;
74677;SDS011;67324;56.326;43.982;2023-04-29T10:22:18;3.37;;;2.77;;
74677;SDS011;67324;56.326;43.982;2023-04-29T10:24:58;2.63;;;2.42;;
74677;SDS011;67324;56.326;43.982;2023-04-29T10:27:26;3.20;;;2.90;;
74677;SDS011;67324;56.326;43.982;2023-04-29T10:29:53;2.92;;;2.63;;
74677;SDS011;67324;56.326;43.982;2023-04-29T10:32:42;2.80;;;2.50;;
74677;SDS011;67324;56.326;43.982;2023-04-29T10:35:09;2.95;;;2.50;;
74677;SDS011;67324;56.326;43.982;2023-04-29T10:37:37;3.40;;;2.90;;
74677;SDS011;67324;56.326;43.982;2023-04-29T10:45:20;3.03;;;2.67;;
74677;SDS011;67324;56.326;43.982;2023-04-29T10:48:09;2.90;;;2.40;;
74677;SDS011;67324;56.326;43.982;2023-04-29T10:53:12;3.33;;;2.60;;
74677;SDS011;67324;56.326;43.982;2023-04-29T10:55:39;2.60;;;2.40;;
74677;SDS011;67324;56.326;43.982;2023-04-29T10:58:32;2.95;;;2.60;;
74677;SDS011;67324;56.326;43.982;2023-04-29T11:01:01;3.03;;;2.67;;
74677;SDS011;67324;56.326;43.982;2023-04-29T11:14:42;2.88;;;2.28;;
74677;SDS011;67324;56.326;43.982;2023-04-29T11:17:14;4.53;;;2.60;;
74677;SDS011;67324;56.326;43.982;2023-04-29T11:19:42;2.80;;;2.50;;
74677;SDS011;67324;56.326;43.982;2023-04-29T11:22:29;2.53;;;2.30;;
74677;SDS011;67324;56.326;43.982;2023-04-29T11:25:14;2.60;;;2.40;;
74677;SDS011;67324;56.326;43.982;2023-04-29T11:27:40;2.83;;;2.53;;
74677;SDS011;67324;56.326;43.982;2023-04-29T11:30:07;3.10;;;2.60;;
74677;SDS011;67324;56.326;43.982;2023-04-29T11:32:36;3.00;;;2.70;;
74677;SDS011;67324;56.326;43.982;2023-04-29T11:35:11;2.90;;;2.58;;
74677;SDS011;67324;56.326;43.982;2023-04-29T11:40:05;2.92;;;2.65;;
74677;SDS011;67324;56.326;43.982;2023-04-29T11:42:35;3.10;;;2.80;;
74677;SDS011;67324;56.326;43.982;2023-04-29T11:45:05;2.70;;;2.40;;
74677;SDS011;67324;56.326;43.982;2023-04-29T11:47:31;3.00;;;2.60;;
74677;SDS011;67324;56.326;43.982;2023-04-29T11:50:01;2.55;;;2.35;;
74677;SDS011;67324;56.326;43.982;2023-04-29T11:52:31;2.60;;;2.25;;
74677;SDS011;67324;56.326;43.982;2023-04-29T11:54:57;2.60;;;2.40;;
74677;SDS011;67324;56.326;43.982;2023-04-29T11:57:26;2.60;;;2.40;;
74677;SDS011;67324;56.326;43.982;2023-04-29T11:59:53;2.83;;;2.53;;
74677;SDS011;67324;56.326;43.982;2023-04-29T12:02:28;2.92;;;2.55;;
74677;SDS011;67324;56.326;43.982;2023-04-29T12:04:57;2.55;;;2.35;;
74677;SDS011;67324;56.326;43.982;2023-04-29T12:07:25;2.97;;;2.67;;
74677;SDS011;67324;56.326;43.982;2023-04-29T12:09:51;2.90;;;2.60;;
74677;SDS011;67324;56.326;43.982;2023-04-29T12:12:19;2.83;;;2.50;;
74677;SDS011;67324;56.326;43.982;2023-04-29T12:14:45;2.58;;;2.35;;
74677;SDS011;67324;56.326;43.982;2023-04-29T12:17:12;3.05;;;2.75;;
74677;SDS011;67324;56.326;43.982;2023-04-29T12:19:38;3.20;;;2.28;;
74677;SDS011;67324;56.326;43.982;2023-04-29T12:22:05;2.63;;;2.40;;
74677;SDS011;67324;56.326;43.982;2023-04-29T12:24:32;3.08;;;2.78;;
74677;SDS011;67324;56.326;43.982;2023-04-29T12:27:02;2.67;;;2.42;;
74677;SDS011;67324;56.326;43.982;2023-04-29T12:29:33;3.25;;;2.70;;
74677;SDS011;67324;56.326;43.982;2023-04-29T12:32:00;2.72;;;2.40;;
74677;SDS011;67324;56.326;43.982;2023-04-29T12:34:27;3.58;;;2.50;;
74677;SDS011;67324;56.326;43.982;2023-04-29T12:36:57;2.78;;;2.40;;
74677;SDS011;67324;56.326;43.982;2023-04-29T12:39:24;2.63;;;2.35;;
74677;SDS011;67324;56.326;43.982;2023-04-29T12:41:56;2.72;;;2.50;;
74677;SDS011;67324;56.326;43.982;2023-04-29T12:44:23;2.72;;;2.53;;
74677;SDS011;67324;56.326;43.982;2023-04-29T12:46:49;2.45;;;2.25;;
74677;SDS011;67324;56.326;43.982;2023-04-29T12:49:17;3.08;;;2.67;;
74677;SDS011;67324;56.326;43.982;2023-04-29T12:51:44;2.50;;;2.30;;
74677;SDS011;67324;56.326;43.982;2023-04-29T12:54:10;2.83;;;2.45;;
74677;SDS011;67324;56.326;43.982;2023-04-29T12:56:36;2.95;;;2.47;;
74677;SDS011;67324;56.326;43.982;2023-04-29T12:59:06;2.63;;;2.42;;
74677;SDS011;67324;56.326;43.982;2023-04-29T13:01:33;2.55;;;2.33;;
74677;SDS011;67324;56.326;43.982;2023-04-29T13:03:59;3.08;;;2.67;;
74677;SDS011;67324;56.326;43.982;2023-04-29T13:06:25;2.85;;;2.63;;
74677;SDS011;67324;56.326;43.982;2023-04-29T13:08:51;2.50;;;2.30;;
74677;SDS011;67324;56.326;43.982;2023-04-29T13:11:35;2.55;;;2.35;;
74677;SDS011;67324;56.326;43.982;2023-04-29T13:14:01;2.72;;;2.50;;
74677;SDS011;67324;56.326;43.982;2023-04-29T13:16:47;2.90;;;2.50;;
74677;SDS011;67324;56.326;43.982;2023-04-29T13:19:13;3.30;;;2.55;;
74677;SDS011;67324;56.326;43.982;2023-04-29T13:21:39;2.78;;;2.50;;
74677;SDS011;67324;56.326;43.982;2023-04-29T13:24:05;2.72;;;2.40;;
74677;SDS011;67324;56.326;43.982;2023-04-29T13:26:31;2.58;;;2.38;;
74677;SDS011;67324;56.326;43.982;2023-04-29T13:28:57;2.78;;;2.58;;
74677;SDS011;67324;56.326;43.982;2023-04-29T13:31:23;2.58;;;2.38;;
74677;SDS011;67324;56.326;43.982;2023-04-29T13:33:49;2.83;;;2.47;;
74677;SDS011;67324;56.326;43.982;2023-04-29T13:36:15;2.78;;;2.20;;
74677;SDS011;67324;56.326;43.982;2023-04-29T13:38:40;2.80;;;2.50;;
74677;SDS011;67324;56.326;43.982;2023-04-29T13:41:06;2.60;;;2.40;;
74677;SDS011;67324;56.326;43.982;2023-04-29T13:43:32;2.72;;;2.40;;
74677;SDS011;67324;56.326;43.982;2023-04-29T13:45:58;2.80;;;2.30;;
74677;SDS011;67324;56.326;43.982;2023-04-29T13:48:24;2.78;;;2.47;;
74677;SDS011;67324;56.326;43.982;2023-04-29T13:50:50;2.88;;;2.50;;
74677;SDS011;67324;56.326;43.982;2023-04-29T13:53:15;2.60;;;2.40;;
74677;SDS011;67324;56.326;43.982;2023-04-29T13:55:41;2.83;;;2.30;;
74677;SDS011;67324;56.326;43.982;2023-04-29T13:58:07;2.53;;;2.28;;
74677;SDS011;67324;56.326;43.982;2023-04-29T14:00:33;2.88;;;2.58;;
74677;SDS011;67324;56.326;43.982;2023-04-29T14:02:59;2.80;;;2.55;;
74677;SDS011;67324;56.326;43.982;2023-04-29T14:05:25;2.67;;;2.47;;
74677;SDS011;67324;56.326;43.982;2023-04-29T14:07:51;3.58;;;2.42;;
74677;SDS011;67324;56.326;43.982;2023-04-29T14:10:17;2.53;;;2.33;;
74677;SDS011;67324;56.326;43.982;2023-04-29T14:12:43;2.80;;;2.45;;
74677;SDS011;67324;56.326;43.982;2023-04-29T14:15:09;2.97;;;2.50;;
74677;SDS011;67324;56.326;43.982;2023-04-29T14:17:35;2.88;;;2.40;;
74677;SDS011;67324;56.326;43.982;2023-04-29T14:20:01;2.75;;;2.40;;
74677;SDS011;67324;56.326;43.982;2023-04-29T14:22:28;2.60;;;2.40;;
74677;SDS011;67324;56.326;43.982;2023-04-29T14:24:54;3.08;;;2.42;;
74677;SDS011;67324;56.326;43.982;2023-04-29T14:27:20;2.53;;;2.33;;
74677;SDS011;67324;56.326;43.982;2023-04-29T14:29:46;2.80;;;2.30;;
74677;SDS011;67324;56.326;43.982;2023-04-29T14:32:12;2.78;;;2.45;;
74677;SDS011;67324;56.326;43.982;2023-04-29T14:34:38;2.60;;;2.25;;
74677;SDS011;67324;56.326;43.982;2023-04-29T14:37:04;2.70;;;2.40;;
74677;SDS011;67324;56.326;43.982;2023-04-29T14:39:29;2.47;;;2.22;;
74677;SDS011;67324;56.326;43.982;2023-04-29T14:41:55;2.33;;;2.13;;
74677;SDS011;67324;56.326;43.982;2023-04-29T14:44:21;2.30;;;2.08;;
74677;SDS011;67324;56.326;43.982;2023-04-29T14:46:47;2.90;;;2.33;;
74677;SDS011;67324;56.326;43.982;2023-04-29T14:49:12;2.60;;;2.40;;
74677;SDS011;67324;56.326;43.982;2023-04-29T14:51:38;2.78;;;2.40;;
74677;SDS011;67324;56.326;43.982;2023-04-29T14:54:04;2.17;;;1.98;;
74677;SDS011;67324;56.326;43.982;2023-04-29T14:56:30;2.97;;;2.30;;
74677;SDS011;67324;56.326;43.982;2023-04-29T14:58:56;2.90;;;2.60;;
74677;SDS011;67324;56.326;43.982;2023-04-29T15:01:22;2.92;;;2.45;;
74677;SDS011;67324;56.326;43.982;2023-04-29T15:03:48;2.78;;;2.30;;
74677;SDS011;67324;56.326;43.982;2023-04-29T15:06:13;3.13;;;2.40;;
74677;SDS011;67324;56.326;43.982;2023-04-29T15:08:39;2.67;;;2.47;;
74677;SDS011;67324;56.326;43.982;2023-04-29T15:11:05;2.55;;;2.17;;
74677;SDS011;67324;56.326;43.982;2023-04-29T15:13:31;2.40;;;2.20;;
74677;SDS011;67324;56.326;43.982;2023-04-29T15:15:57;2.67;;;2.28;;
74677;SDS011;67324;56.326;43.982;2023-04-29T15:18:23;2.35;;;2.15;;
74677;SDS011;67324;56.326;43.982;2023-04-29T15:20:50;2.45;;;2.20;;
74677;SDS011;67324;56.326;43.982;2023-04-29T15:23:16;2.65;;;2.15;;
74677;SDS011;67324;56.326;43.982;2023-04-29T15:26:00;2.90;;;2.40;;